sensor_id;sensor_type;location;lat;lon;timestamp;P1;durP1;ratioP1;P2;durP2;ratioP2
9248;SDS011;4660;41.768;26.198;2023-12-22T00:01:25;33.57;;;20.17;;
9248;SDS011;4660;41.768;26.198;2023-12-22T00:03:51;28.33;;;18.33;;
9248;SDS011;4660;41.768;26.198;2023-12-22T00:06:16;22.17;;;15.87;;
9248;SDS011;4660;41.768;26.198;2023-12-22T00:08:41;23.37;;;15.70;;
9248;SDS011;4660;41.768;26.198;2023-12-22T00:11:07;25.27;;;16.13;;
9248;SDS011;4660;41.768;26.198;2023-12-22T00:13:33;30.97;;;18.70;;
9248;SDS011;4660;41.768;26.198;2023-12-22T00:15:59;30.70;;;18.53;;
9248;SDS011;4660;41.768;26.198;2023-12-22T00:18:25;32.73;;;19.73;;
9248;SDS011;4660;41.768;26.198;2023-12-22T00:20:51;38.30;;;20.10;;
9248;SDS011;4660;41.768;26.198;2023-12-22T00:23:17;38.97;;;21.97;;
9248;SDS011;4660;41.768;26.198;2023-12-22T00:25:42;44.23;;;22.10;;
9248;SDS011;4660;41.768;26.198;2023-12-22T00:28:08;39.40;;;22.63;;
9248;SDS011;4660;41.768;26.198;2023-12-22T00:30:33;42.73;;;23.30;;
9248;SDS011;4660;41.768;26.198;2023-12-22T00:32:59;36.90;;;20.33;;
9248;SDS011;4660;41.768;26.198;2023-12-22T00:35:24;37.80;;;21.67;;
9248;SDS011;4660;41.768;26.198;2023-12-22T00:37:50;32.13;;;19.47;;
9248;SDS011;4660;41.768;26.198;2023-12-22T00:40:18;29.47;;;17.87;;
9248;SDS011;4660;41.768;26.198;2023-12-22T00:42:43;27.67;;;16.70;;
9248;SDS011;4660;41.768;26.198;2023-12-22T00:45:09;25.37;;;15.87;;
9248;SDS011;4660;41.768;26.198;2023-12-22T00:47:34;22.83;;;15.70;;
9248;SDS011;4660;41.768;26.198;2023-12-22T00:50:01;24.07;;;15.40;;
9248;SDS011;4660;41.768;26.198;2023-12-22T00:52:27;20.20;;;13.93;;
9248;SDS011;4660;41.768;26.198;2023-12-22T00:54:52;21.87;;;13.63;;
9248;SDS011;4660;41.768;26.198;2023-12-22T00:57:18;23.17;;;15.87;;
9248;SDS011;4660;41.768;26.198;2023-12-22T00:59:44;23.60;;;15.57;;
9248;SDS011;4660;41.768;26.198;2023-12-22T01:02:16;22.97;;;16.20;;
9248;SDS011;4660;41.768;26.198;2023-12-22T01:04:43;22.87;;;15.40;;
9248;SDS011;4660;41.768;26.198;2023-12-22T01:07:09;26.63;;;16.20;;
9248;SDS011;4660;41.768;26.198;2023-12-22T01:09:35;24.90;;;14.47;;
9248;SDS011;4660;41.768;26.198;2023-12-22T01:12:04;23.50;;;15.43;;
9248;SDS011;4660;41.768;26.198;2023-12-22T01:14:31;25.77;;;16.60;;
9248;SDS011;4660;41.768;26.198;2023-12-22T01:16:56;23.53;;;14.40;;
9248;SDS011;4660;41.768;26.198;2023-12-22T01:19:24;20.90;;;14.87;;
9248;SDS011;4660;41.768;26.198;2023-12-22T01:21:49;25.03;;;17.30;;
9248;SDS011;4660;41.768;26.198;2023-12-22T01:24:15;24.80;;;17.43;;
9248;SDS011;4660;41.768;26.198;2023-12-22T01:26:40;26.20;;;15.60;;
9248;SDS011;4660;41.768;26.198;2023-12-22T01:29:07;22.93;;;14.53;;
9248;SDS011;4660;41.768;26.198;2023-12-22T01:31:32;23.43;;;14.80;;
9248;SDS011;4660;41.768;26.198;2023-12-22T01:33:58;22.07;;;14.17;;
9248;SDS011;4660;41.768;26.198;2023-12-22T01:36:23;20.30;;;14.00;;
9248;SDS011;4660;41.768;26.198;2023-12-22T01:38:48;23.47;;;14.57;;
9248;SDS011;4660;41.768;26.198;2023-12-22T01:41:14;23.67;;;14.93;;
9248;SDS011;4660;41.768;26.198;2023-12-22T01:43:39;23.03;;;14.03;;
9248;SDS011;4660;41.768;26.198;2023-12-22T01:46:05;25.07;;;14.07;;
9248;SDS011;4660;41.768;26.198;2023-12-22T01:48:32;23.93;;;16.17;;
9248;SDS011;4660;41.768;26.198;2023-12-22T01:50:58;28.27;;;17.77;;
9248;SDS011;4660;41.768;26.198;2023-12-22T01:53:25;28.80;;;17.77;;
9248;SDS011;4660;41.768;26.198;2023-12-22T01:55:52;27.07;;;16.23;;
9248;SDS011;4660;41.768;26.198;2023-12-22T01:58:19;24.80;;;15.07;;
9248;SDS011;4660;41.768;26.198;2023-12-22T02:00:47;22.70;;;14.60;;
9248;SDS011;4660;41.768;26.198;2023-12-22T02:03:12;24.50;;;15.03;;
9248;SDS011;4660;41.768;26.198;2023-12-22T02:05:40;26.67;;;14.50;;
9248;SDS011;4660;41.768;26.198;2023-12-22T02:08:06;24.67;;;14.83;;
9248;SDS011;4660;41.768;26.198;2023-12-22T02:10:31;26.63;;;15.10;;
9248;SDS011;4660;41.768;26.198;2023-12-22T02:12:57;23.90;;;15.53;;
9248;SDS011;4660;41.768;26.198;2023-12-22T02:15:22;26.33;;;15.10;;
9248;SDS011;4660;41.768;26.198;2023-12-22T02:17:49;26.70;;;16.00;;
9248;SDS011;4660;41.768;26.198;2023-12-22T02:20:23;27.47;;;16.50;;
9248;SDS011;4660;41.768;26.198;2023-12-22T02:22:52;29.47;;;15.67;;
9248;SDS011;4660;41.768;26.198;2023-12-22T02:25:18;26.60;;;16.20;;
9248;SDS011;4660;41.768;26.198;2023-12-22T02:33:20;28.10;;;17.23;;
9248;SDS011;4660;41.768;26.198;2023-12-22T02:35:49;31.87;;;18.90;;
9248;SDS011;4660;41.768;26.198;2023-12-22T02:38:17;28.97;;;17.87;;
9248;SDS011;4660;41.768;26.198;2023-12-22T02:40:43;30.40;;;18.50;;
9248;SDS011;4660;41.768;26.198;2023-12-22T02:43:09;28.97;;;18.00;;
9248;SDS011;4660;41.768;26.198;2023-12-22T02:45:36;26.87;;;17.03;;
9248;SDS011;4660;41.768;26.198;2023-12-22T02:48:01;27.27;;;17.70;;
9248;SDS011;4660;41.768;26.198;2023-12-22T02:50:27;25.50;;;16.70;;
9248;SDS011;4660;41.768;26.198;2023-12-22T02:52:52;30.60;;;17.20;;
9248;SDS011;4660;41.768;26.198;2023-12-22T02:55:18;32.83;;;18.50;;
9248;SDS011;4660;41.768;26.198;2023-12-22T02:57:43;26.17;;;16.53;;
9248;SDS011;4660;41.768;26.198;2023-12-22T03:00:09;21.67;;;14.93;;
9248;SDS011;4660;41.768;26.198;2023-12-22T03:02:35;19.97;;;13.70;;
9248;SDS011;4660;41.768;26.198;2023-12-22T03:05:00;20.03;;;12.40;;
9248;SDS011;4660;41.768;26.198;2023-12-22T03:07:25;17.47;;;11.97;;
9248;SDS011;4660;41.768;26.198;2023-12-22T03:09:51;20.00;;;11.63;;
9248;SDS011;4660;41.768;26.198;2023-12-22T03:12:16;27.80;;;14.13;;
9248;SDS011;4660;41.768;26.198;2023-12-22T03:14:42;31.83;;;13.87;;
9248;SDS011;4660;41.768;26.198;2023-12-22T03:17:07;35.13;;;14.40;;
9248;SDS011;4660;41.768;26.198;2023-12-22T03:19:33;32.70;;;16.13;;
9248;SDS011;4660;41.768;26.198;2023-12-22T03:21:59;42.57;;;17.23;;
9248;SDS011;4660;41.768;26.198;2023-12-22T03:24:25;44.67;;;16.70;;
9248;SDS011;4660;41.768;26.198;2023-12-22T03:26:52;48.80;;;19.30;;
9248;SDS011;4660;41.768;26.198;2023-12-22T03:29:17;47.10;;;20.30;;
9248;SDS011;4660;41.768;26.198;2023-12-22T03:31:44;52.87;;;20.07;;
9248;SDS011;4660;41.768;26.198;2023-12-22T03:34:10;33.53;;;18.30;;
9248;SDS011;4660;41.768;26.198;2023-12-22T03:36:35;32.23;;;17.77;;
9248;SDS011;4660;41.768;26.198;2023-12-22T03:39:01;37.90;;;18.83;;
9248;SDS011;4660;41.768;26.198;2023-12-22T03:41:27;30.77;;;17.10;;
9248;SDS011;4660;41.768;26.198;2023-12-22T03:43:54;38.80;;;19.13;;
9248;SDS011;4660;41.768;26.198;2023-12-22T03:46:20;39.27;;;17.73;;
9248;SDS011;4660;41.768;26.198;2023-12-22T03:48:45;41.53;;;18.47;;
9248;SDS011;4660;41.768;26.198;2023-12-22T03:51:12;61.20;;;23.67;;
9248;SDS011;4660;41.768;26.198;2023-12-22T03:53:39;67.90;;;23.27;;
9248;SDS011;4660;41.768;26.198;2023-12-22T03:56:06;69.90;;;24.60;;
9248;SDS011;4660;41.768;26.198;2023-12-22T03:58:32;96.53;;;23.87;;
9248;SDS011;4660;41.768;26.198;2023-12-22T04:00:58;71.53;;;26.13;;
9248;SDS011;4660;41.768;26.198;2023-12-22T04:03:23;92.37;;;24.97;;
9248;SDS011;4660;41.768;26.198;2023-12-22T04:05:49;62.13;;;25.40;;
9248;SDS011;4660;41.768;26.198;2023-12-22T04:08:14;96.03;;;26.77;;
9248;SDS011;4660;41.768;26.198;2023-12-22T04:10:40;75.70;;;27.37;;
9248;SDS011;4660;41.768;26.198;2023-12-22T04:13:05;75.03;;;28.77;;
9248;SDS011;4660;41.768;26.198;2023-12-22T04:15:31;118.27;;;29.07;;
9248;SDS011;4660;41.768;26.198;2023-12-22T04:17:56;61.67;;;26.63;;
9248;SDS011;4660;41.768;26.198;2023-12-22T04:20:22;65.13;;;26.33;;
9248;SDS011;4660;41.768;26.198;2023-12-22T04:22:47;108.40;;;28.23;;
9248;SDS011;4660;41.768;26.198;2023-12-22T04:25:13;77.60;;;27.07;;
9248;SDS011;4660;41.768;26.198;2023-12-22T04:27:38;75.60;;;28.23;;
9248;SDS011;4660;41.768;26.198;2023-12-22T04:30:04;81.40;;;30.67;;
9248;SDS011;4660;41.768;26.198;2023-12-22T04:32:30;63.03;;;27.97;;
9248;SDS011;4660;41.768;26.198;2023-12-22T04:34:55;89.43;;;30.27;;
9248;SDS011;4660;41.768;26.198;2023-12-22T04:37:21;102.07;;;29.57;;
9248;SDS011;4660;41.768;26.198;2023-12-22T04:39:46;83.40;;;28.20;;
9248;SDS011;4660;41.768;26.198;2023-12-22T04:42:11;53.37;;;24.33;;
9248;SDS011;4660;41.768;26.198;2023-12-22T04:44:37;72.10;;;27.07;;
9248;SDS011;4660;41.768;26.198;2023-12-22T04:47:03;74.47;;;22.93;;
9248;SDS011;4660;41.768;26.198;2023-12-22T04:49:28;63.67;;;21.43;;
9248;SDS011;4660;41.768;26.198;2023-12-22T04:51:53;48.33;;;19.30;;
9248;SDS011;4660;41.768;26.198;2023-12-22T04:54:19;62.20;;;20.77;;
9248;SDS011;4660;41.768;26.198;2023-12-22T04:56:44;52.77;;;19.67;;
9248;SDS011;4660;41.768;26.198;2023-12-22T04:59:10;57.07;;;21.37;;
9248;SDS011;4660;41.768;26.198;2023-12-22T05:01:35;66.80;;;21.67;;
9248;SDS011;4660;41.768;26.198;2023-12-22T05:04:01;50.60;;;20.50;;
9248;SDS011;4660;41.768;26.198;2023-12-22T05:06:27;59.90;;;19.40;;
9248;SDS011;4660;41.768;26.198;2023-12-22T05:08:54;94.97;;;21.30;;
9248;SDS011;4660;41.768;26.198;2023-12-22T05:11:21;84.67;;;22.73;;
9248;SDS011;4660;41.768;26.198;2023-12-22T05:13:47;61.43;;;20.97;;
9248;SDS011;4660;41.768;26.198;2023-12-22T05:16:13;84.37;;;22.77;;
9248;SDS011;4660;41.768;26.198;2023-12-22T05:18:38;55.57;;;21.70;;
9248;SDS011;4660;41.768;26.198;2023-12-22T05:21:04;62.50;;;20.40;;
9248;SDS011;4660;41.768;26.198;2023-12-22T05:23:30;83.50;;;22.60;;
9248;SDS011;4660;41.768;26.198;2023-12-22T05:25:55;54.20;;;22.77;;
9248;SDS011;4660;41.768;26.198;2023-12-22T05:28:21;69.40;;;22.83;;
9248;SDS011;4660;41.768;26.198;2023-12-22T05:30:46;61.07;;;24.43;;
9248;SDS011;4660;41.768;26.198;2023-12-22T05:33:12;64.30;;;21.93;;
9248;SDS011;4660;41.768;26.198;2023-12-22T05:35:38;56.27;;;20.10;;
9248;SDS011;4660;41.768;26.198;2023-12-22T05:38:04;53.47;;;19.33;;
9248;SDS011;4660;41.768;26.198;2023-12-22T05:40:31;88.37;;;20.83;;
9248;SDS011;4660;41.768;26.198;2023-12-22T05:42:56;70.00;;;22.83;;
9248;SDS011;4660;41.768;26.198;2023-12-22T05:45:22;66.70;;;24.30;;
9248;SDS011;4660;41.768;26.198;2023-12-22T05:47:50;64.20;;;23.60;;
9248;SDS011;4660;41.768;26.198;2023-12-22T05:50:16;77.60;;;25.13;;
9248;SDS011;4660;41.768;26.198;2023-12-22T05:52:42;54.13;;;23.07;;
9248;SDS011;4660;41.768;26.198;2023-12-22T05:55:10;61.13;;;22.30;;
9248;SDS011;4660;41.768;26.198;2023-12-22T05:57:35;84.37;;;20.97;;
9248;SDS011;4660;41.768;26.198;2023-12-22T06:00:01;68.60;;;25.53;;
9248;SDS011;4660;41.768;26.198;2023-12-22T06:02:29;57.47;;;22.43;;
9248;SDS011;4660;41.768;26.198;2023-12-22T06:04:55;71.37;;;23.93;;
9248;SDS011;4660;41.768;26.198;2023-12-22T06:07:20;54.07;;;22.90;;
9248;SDS011;4660;41.768;26.198;2023-12-22T06:09:46;64.57;;;22.73;;
9248;SDS011;4660;41.768;26.198;2023-12-22T06:12:11;63.47;;;24.70;;
9248;SDS011;4660;41.768;26.198;2023-12-22T06:14:37;62.23;;;22.60;;
9248;SDS011;4660;41.768;26.198;2023-12-22T06:17:02;57.47;;;21.80;;
9248;SDS011;4660;41.768;26.198;2023-12-22T06:19:28;65.10;;;24.43;;
9248;SDS011;4660;41.768;26.198;2023-12-22T06:21:56;49.50;;;26.43;;
9248;SDS011;4660;41.768;26.198;2023-12-22T06:24:25;70.90;;;26.87;;
9248;SDS011;4660;41.768;26.198;2023-12-22T06:26:51;60.87;;;25.40;;
9248;SDS011;4660;41.768;26.198;2023-12-22T06:29:16;55.17;;;22.57;;
9248;SDS011;4660;41.768;26.198;2023-12-22T06:31:42;46.57;;;23.63;;
9248;SDS011;4660;41.768;26.198;2023-12-22T06:34:08;52.40;;;23.93;;
9248;SDS011;4660;41.768;26.198;2023-12-22T06:36:33;65.97;;;23.40;;
9248;SDS011;4660;41.768;26.198;2023-12-22T06:38:59;56.40;;;21.87;;
9248;SDS011;4660;41.768;26.198;2023-12-22T06:41:26;57.80;;;22.17;;
9248;SDS011;4660;41.768;26.198;2023-12-22T06:43:53;57.23;;;21.40;;
9248;SDS011;4660;41.768;26.198;2023-12-22T06:46:19;70.30;;;22.93;;
9248;SDS011;4660;41.768;26.198;2023-12-22T06:48:45;52.47;;;23.97;;
9248;SDS011;4660;41.768;26.198;2023-12-22T06:51:17;53.47;;;25.40;;
9248;SDS011;4660;41.768;26.198;2023-12-22T06:53:44;45.33;;;22.53;;
9248;SDS011;4660;41.768;26.198;2023-12-22T06:58:42;68.20;;;23.80;;
9248;SDS011;4660;41.768;26.198;2023-12-22T07:01:07;57.97;;;23.10;;
9248;SDS011;4660;41.768;26.198;2023-12-22T07:03:33;70.70;;;21.80;;
9248;SDS011;4660;41.768;26.198;2023-12-22T07:05:59;64.27;;;23.07;;
9248;SDS011;4660;41.768;26.198;2023-12-22T07:08:25;77.10;;;27.63;;
9248;SDS011;4660;41.768;26.198;2023-12-22T07:10:50;71.73;;;22.90;;
9248;SDS011;4660;41.768;26.198;2023-12-22T07:13:16;67.70;;;22.70;;
9248;SDS011;4660;41.768;26.198;2023-12-22T07:15:41;55.83;;;22.10;;
9248;SDS011;4660;41.768;26.198;2023-12-22T07:18:07;56.10;;;23.67;;
9248;SDS011;4660;41.768;26.198;2023-12-22T07:20:32;69.03;;;23.07;;
9248;SDS011;4660;41.768;26.198;2023-12-22T07:22:58;75.50;;;22.03;;
9248;SDS011;4660;41.768;26.198;2023-12-22T07:25:23;94.10;;;20.57;;
9248;SDS011;4660;41.768;26.198;2023-12-22T07:27:49;56.47;;;21.57;;
9248;SDS011;4660;41.768;26.198;2023-12-22T07:30:15;88.60;;;24.93;;
9248;SDS011;4660;41.768;26.198;2023-12-22T07:32:43;61.53;;;22.23;;
9248;SDS011;4660;41.768;26.198;2023-12-22T07:35:09;44.33;;;21.53;;
9248;SDS011;4660;41.768;26.198;2023-12-22T07:37:38;76.57;;;22.20;;
9248;SDS011;4660;41.768;26.198;2023-12-22T07:40:03;47.77;;;22.90;;
9248;SDS011;4660;41.768;26.198;2023-12-22T07:42:30;50.03;;;23.80;;
9248;SDS011;4660;41.768;26.198;2023-12-22T07:44:55;51.60;;;25.90;;
9248;SDS011;4660;41.768;26.198;2023-12-22T07:47:21;60.60;;;28.70;;
9248;SDS011;4660;41.768;26.198;2023-12-22T07:49:46;69.83;;;31.17;;
9248;SDS011;4660;41.768;26.198;2023-12-22T07:52:15;74.10;;;32.83;;
9248;SDS011;4660;41.768;26.198;2023-12-22T07:54:40;80.90;;;29.77;;
9248;SDS011;4660;41.768;26.198;2023-12-22T07:57:06;87.13;;;32.20;;
9248;SDS011;4660;41.768;26.198;2023-12-22T07:59:33;65.47;;;28.13;;
9248;SDS011;4660;41.768;26.198;2023-12-22T08:01:58;47.30;;;23.90;;
9248;SDS011;4660;41.768;26.198;2023-12-22T08:04:24;55.47;;;26.53;;
9248;SDS011;4660;41.768;26.198;2023-12-22T08:06:50;51.33;;;25.37;;
9248;SDS011;4660;41.768;26.198;2023-12-22T08:09:15;66.00;;;32.57;;
9248;SDS011;4660;41.768;26.198;2023-12-22T08:11:41;64.23;;;29.90;;
9248;SDS011;4660;41.768;26.198;2023-12-22T08:14:07;65.77;;;31.10;;
9248;SDS011;4660;41.768;26.198;2023-12-22T08:16:33;53.20;;;26.37;;
9248;SDS011;4660;41.768;26.198;2023-12-22T08:18:58;49.70;;;24.70;;
9248;SDS011;4660;41.768;26.198;2023-12-22T08:21:24;56.73;;;29.80;;
9248;SDS011;4660;41.768;26.198;2023-12-22T08:23:49;70.40;;;31.77;;
9248;SDS011;4660;41.768;26.198;2023-12-22T08:26:15;66.87;;;32.17;;
9248;SDS011;4660;41.768;26.198;2023-12-22T08:28:44;60.67;;;31.77;;
9248;SDS011;4660;41.768;26.198;2023-12-22T08:31:10;58.70;;;31.33;;
9248;SDS011;4660;41.768;26.198;2023-12-22T08:33:37;73.13;;;35.50;;
9248;SDS011;4660;41.768;26.198;2023-12-22T08:36:06;65.70;;;34.37;;
9248;SDS011;4660;41.768;26.198;2023-12-22T08:38:31;67.33;;;34.80;;
9248;SDS011;4660;41.768;26.198;2023-12-22T08:40:57;80.50;;;38.50;;
9248;SDS011;4660;41.768;26.198;2023-12-22T08:43:22;73.50;;;36.60;;
9248;SDS011;4660;41.768;26.198;2023-12-22T08:45:48;90.70;;;44.53;;
9248;SDS011;4660;41.768;26.198;2023-12-22T08:48:13;74.93;;;38.23;;
9248;SDS011;4660;41.768;26.198;2023-12-22T08:50:39;85.27;;;42.30;;
9248;SDS011;4660;41.768;26.198;2023-12-22T08:53:04;84.67;;;43.20;;
9248;SDS011;4660;41.768;26.198;2023-12-22T08:55:30;82.70;;;43.70;;
9248;SDS011;4660;41.768;26.198;2023-12-22T08:57:55;81.80;;;41.33;;
9248;SDS011;4660;41.768;26.198;2023-12-22T09:00:21;75.20;;;38.50;;
9248;SDS011;4660;41.768;26.198;2023-12-22T09:02:46;61.70;;;31.50;;
9248;SDS011;4660;41.768;26.198;2023-12-22T09:05:12;48.83;;;26.40;;
9248;SDS011;4660;41.768;26.198;2023-12-22T09:07:37;36.97;;;21.40;;
9248;SDS011;4660;41.768;26.198;2023-12-22T09:10:04;30.63;;;19.10;;
9248;SDS011;4660;41.768;26.198;2023-12-22T09:12:31;23.07;;;15.77;;
9248;SDS011;4660;41.768;26.198;2023-12-22T09:14:56;28.80;;;17.20;;
9248;SDS011;4660;41.768;26.198;2023-12-22T09:17:25;29.53;;;18.63;;
9248;SDS011;4660;41.768;26.198;2023-12-22T09:19:53;27.27;;;16.97;;
9248;SDS011;4660;41.768;26.198;2023-12-22T09:22:19;24.80;;;16.07;;
9248;SDS011;4660;41.768;26.198;2023-12-22T09:24:45;28.10;;;16.90;;
9248;SDS011;4660;41.768;26.198;2023-12-22T09:27:10;29.03;;;18.00;;
9248;SDS011;4660;41.768;26.198;2023-12-22T09:29:36;25.93;;;16.87;;
9248;SDS011;4660;41.768;26.198;2023-12-22T09:32:02;27.97;;;17.80;;
9248;SDS011;4660;41.768;26.198;2023-12-22T09:34:27;26.87;;;18.30;;
9248;SDS011;4660;41.768;26.198;2023-12-22T09:36:53;26.80;;;17.20;;
9248;SDS011;4660;41.768;26.198;2023-12-22T09:39:19;28.60;;;17.70;;
9248;SDS011;4660;41.768;26.198;2023-12-22T09:41:47;31.13;;;19.47;;
9248;SDS011;4660;41.768;26.198;2023-12-22T09:44:15;32.20;;;21.67;;
9248;SDS011;4660;41.768;26.198;2023-12-22T09:46:45;33.00;;;20.50;;
9248;SDS011;4660;41.768;26.198;2023-12-22T09:49:13;24.97;;;18.23;;
9248;SDS011;4660;41.768;26.198;2023-12-22T09:51:40;26.50;;;17.63;;
9248;SDS011;4660;41.768;26.198;2023-12-22T09:54:08;24.83;;;17.40;;
9248;SDS011;4660;41.768;26.198;2023-12-22T09:56:36;26.67;;;17.70;;
9248;SDS011;4660;41.768;26.198;2023-12-22T09:59:07;21.47;;;16.17;;
9248;SDS011;4660;41.768;26.198;2023-12-22T10:01:40;26.07;;;17.03;;
9248;SDS011;4660;41.768;26.198;2023-12-22T10:04:09;22.23;;;15.77;;
9248;SDS011;4660;41.768;26.198;2023-12-22T10:06:35;25.27;;;16.57;;
9248;SDS011;4660;41.768;26.198;2023-12-22T10:09:01;25.53;;;18.40;;
9248;SDS011;4660;41.768;26.198;2023-12-22T10:11:30;25.47;;;17.77;;
9248;SDS011;4660;41.768;26.198;2023-12-22T10:13:57;29.57;;;17.37;;
9248;SDS011;4660;41.768;26.198;2023-12-22T10:16:25;25.43;;;16.33;;
9248;SDS011;4660;41.768;26.198;2023-12-22T10:18:51;25.47;;;17.70;;
9248;SDS011;4660;41.768;26.198;2023-12-22T10:21:17;24.37;;;17.87;;
9248;SDS011;4660;41.768;26.198;2023-12-22T10:23:43;27.07;;;18.20;;
9248;SDS011;4660;41.768;26.198;2023-12-22T10:26:11;25.43;;;17.67;;
9248;SDS011;4660;41.768;26.198;2023-12-22T10:28:36;25.43;;;17.77;;
9248;SDS011;4660;41.768;26.198;2023-12-22T10:31:02;23.53;;;16.53;;
9248;SDS011;4660;41.768;26.198;2023-12-22T10:33:31;29.33;;;20.73;;
9248;SDS011;4660;41.768;26.198;2023-12-22T10:36:01;29.03;;;19.23;;
9248;SDS011;4660;41.768;26.198;2023-12-22T10:38:28;24.23;;;17.37;;
9248;SDS011;4660;41.768;26.198;2023-12-22T10:40:58;26.33;;;17.67;;
9248;SDS011;4660;41.768;26.198;2023-12-22T10:43:24;28.10;;;18.90;;
9248;SDS011;4660;41.768;26.198;2023-12-22T10:45:51;29.60;;;20.47;;
9248;SDS011;4660;41.768;26.198;2023-12-22T10:48:17;27.80;;;20.40;;
9248;SDS011;4660;41.768;26.198;2023-12-22T10:50:43;36.43;;;25.33;;
9248;SDS011;4660;41.768;26.198;2023-12-22T10:53:10;32.17;;;22.53;;
9248;SDS011;4660;41.768;26.198;2023-12-22T10:55:36;38.10;;;25.40;;
9248;SDS011;4660;41.768;26.198;2023-12-22T10:58:03;37.60;;;26.60;;
9248;SDS011;4660;41.768;26.198;2023-12-22T11:00:28;30.37;;;20.97;;
9248;SDS011;4660;41.768;26.198;2023-12-22T11:02:59;23.87;;;17.73;;
9248;SDS011;4660;41.768;26.198;2023-12-22T11:05:28;28.40;;;20.23;;
9248;SDS011;4660;41.768;26.198;2023-12-22T11:07:57;28.50;;;21.23;;
9248;SDS011;4660;41.768;26.198;2023-12-22T11:10:28;27.60;;;20.77;;
9248;SDS011;4660;41.768;26.198;2023-12-22T11:12:56;30.17;;;19.43;;
9248;SDS011;4660;41.768;26.198;2023-12-22T11:15:22;39.83;;;25.97;;
9248;SDS011;4660;41.768;26.198;2023-12-22T11:17:52;30.43;;;20.53;;
9248;SDS011;4660;41.768;26.198;2023-12-22T11:20:20;24.10;;;17.80;;
9248;SDS011;4660;41.768;26.198;2023-12-22T11:22:49;29.57;;;20.73;;
9248;SDS011;4660;41.768;26.198;2023-12-22T11:25:17;25.37;;;18.63;;
9248;SDS011;4660;41.768;26.198;2023-12-22T11:27:44;24.60;;;16.93;;
9248;SDS011;4660;41.768;26.198;2023-12-22T11:30:11;24.07;;;18.53;;
9248;SDS011;4660;41.768;26.198;2023-12-22T11:32:39;23.17;;;16.87;;
9248;SDS011;4660;41.768;26.198;2023-12-22T11:35:06;26.57;;;19.80;;
9248;SDS011;4660;41.768;26.198;2023-12-22T11:37:36;24.47;;;18.93;;
9248;SDS011;4660;41.768;26.198;2023-12-22T11:40:03;26.67;;;19.50;;
9248;SDS011;4660;41.768;26.198;2023-12-22T11:42:30;29.00;;;19.37;;
9248;SDS011;4660;41.768;26.198;2023-12-22T11:44:59;29.73;;;20.93;;
9248;SDS011;4660;41.768;26.198;2023-12-22T11:47:25;25.80;;;17.43;;
9248;SDS011;4660;41.768;26.198;2023-12-22T11:49:53;22.03;;;16.30;;
9248;SDS011;4660;41.768;26.198;2023-12-22T11:52:25;28.67;;;20.17;;
9248;SDS011;4660;41.768;26.198;2023-12-22T11:54:55;30.77;;;21.57;;
9248;SDS011;4660;41.768;26.198;2023-12-22T12:00:03;34.90;;;24.37;;
9248;SDS011;4660;41.768;26.198;2023-12-22T12:02:33;32.37;;;21.47;;
9248;SDS011;4660;41.768;26.198;2023-12-22T12:05:00;34.83;;;22.50;;
9248;SDS011;4660;41.768;26.198;2023-12-22T12:07:42;35.07;;;23.53;;
9248;SDS011;4660;41.768;26.198;2023-12-22T12:10:10;29.67;;;22.77;;
9248;SDS011;4660;41.768;26.198;2023-12-22T12:15:32;33.20;;;22.47;;
9248;SDS011;4660;41.768;26.198;2023-12-22T12:17:59;41.87;;;25.20;;
9248;SDS011;4660;41.768;26.198;2023-12-22T12:20:25;32.07;;;23.37;;
9248;SDS011;4660;41.768;26.198;2023-12-22T12:22:52;35.00;;;25.10;;
9248;SDS011;4660;41.768;26.198;2023-12-22T12:25:19;34.73;;;23.60;;
9248;SDS011;4660;41.768;26.198;2023-12-22T12:27:50;32.10;;;24.23;;
9248;SDS011;4660;41.768;26.198;2023-12-22T12:30:29;33.40;;;25.33;;
9248;SDS011;4660;41.768;26.198;2023-12-22T12:32:58;42.73;;;28.63;;
9248;SDS011;4660;41.768;26.198;2023-12-22T12:35:28;37.27;;;28.17;;
9248;SDS011;4660;41.768;26.198;2023-12-22T12:37:54;36.60;;;26.63;;
9248;SDS011;4660;41.768;26.198;2023-12-22T12:40:20;42.03;;;28.33;;
9248;SDS011;4660;41.768;26.198;2023-12-22T12:42:49;54.10;;;28.60;;
9248;SDS011;4660;41.768;26.198;2023-12-22T12:45:15;43.57;;;30.40;;
9248;SDS011;4660;41.768;26.198;2023-12-22T12:47:54;35.03;;;23.93;;
9248;SDS011;4660;41.768;26.198;2023-12-22T12:50:23;30.47;;;24.33;;
9248;SDS011;4660;41.768;26.198;2023-12-22T12:52:49;38.87;;;28.33;;
9248;SDS011;4660;41.768;26.198;2023-12-22T12:55:17;42.87;;;29.73;;
9248;SDS011;4660;41.768;26.198;2023-12-22T12:57:44;44.33;;;30.67;;
9248;SDS011;4660;41.768;26.198;2023-12-22T13:00:09;42.93;;;29.53;;
9248;SDS011;4660;41.768;26.198;2023-12-22T13:02:35;42.70;;;29.87;;
9248;SDS011;4660;41.768;26.198;2023-12-22T13:05:01;55.20;;;35.00;;
9248;SDS011;4660;41.768;26.198;2023-12-22T13:07:29;49.30;;;34.20;;
9248;SDS011;4660;41.768;26.198;2023-12-22T13:09:55;48.73;;;33.27;;
9248;SDS011;4660;41.768;26.198;2023-12-22T13:12:24;54.20;;;35.53;;
9248;SDS011;4660;41.768;26.198;2023-12-22T13:14:51;68.83;;;44.87;;
9248;SDS011;4660;41.768;26.198;2023-12-22T13:17:16;67.20;;;45.80;;
9248;SDS011;4660;41.768;26.198;2023-12-22T13:19:42;63.70;;;44.33;;
9248;SDS011;4660;41.768;26.198;2023-12-22T13:22:08;69.20;;;48.50;;
9248;SDS011;4660;41.768;26.198;2023-12-22T13:24:35;64.50;;;41.57;;
9248;SDS011;4660;41.768;26.198;2023-12-22T13:27:01;42.63;;;31.10;;
9248;SDS011;4660;41.768;26.198;2023-12-22T13:29:44;46.93;;;32.90;;
9248;SDS011;4660;41.768;26.198;2023-12-22T13:32:14;45.87;;;30.80;;
9248;SDS011;4660;41.768;26.198;2023-12-22T13:34:49;35.80;;;27.00;;
9248;SDS011;4660;41.768;26.198;2023-12-22T13:37:16;36.20;;;25.23;;
9248;SDS011;4660;41.768;26.198;2023-12-22T13:39:42;36.13;;;24.90;;
9248;SDS011;4660;41.768;26.198;2023-12-22T13:42:14;35.07;;;24.00;;
9248;SDS011;4660;41.768;26.198;2023-12-22T13:44:45;42.80;;;26.57;;
9248;SDS011;4660;41.768;26.198;2023-12-22T13:47:18;39.27;;;27.23;;
9248;SDS011;4660;41.768;26.198;2023-12-22T13:49:51;36.67;;;25.70;;
9248;SDS011;4660;41.768;26.198;2023-12-22T13:52:32;32.93;;;23.50;;
9248;SDS011;4660;41.768;26.198;2023-12-22T13:55:00;42.87;;;28.23;;
9248;SDS011;4660;41.768;26.198;2023-12-22T13:57:28;33.63;;;24.37;;
9248;SDS011;4660;41.768;26.198;2023-12-22T13:59:54;33.37;;;24.53;;
9248;SDS011;4660;41.768;26.198;2023-12-22T14:02:23;34.43;;;23.47;;
9248;SDS011;4660;41.768;26.198;2023-12-22T14:04:49;42.23;;;23.90;;
9248;SDS011;4660;41.768;26.198;2023-12-22T14:07:16;32.27;;;24.10;;
9248;SDS011;4660;41.768;26.198;2023-12-22T14:09:42;30.33;;;22.07;;
9248;SDS011;4660;41.768;26.198;2023-12-22T14:12:08;52.43;;;23.77;;
9248;SDS011;4660;41.768;26.198;2023-12-22T14:14:33;34.60;;;22.63;;
9248;SDS011;4660;41.768;26.198;2023-12-22T14:16:59;31.53;;;23.40;;
9248;SDS011;4660;41.768;26.198;2023-12-22T14:19:24;33.30;;;23.77;;
9248;SDS011;4660;41.768;26.198;2023-12-22T14:21:50;31.23;;;21.47;;
9248;SDS011;4660;41.768;26.198;2023-12-22T14:24:15;39.90;;;23.97;;
9248;SDS011;4660;41.768;26.198;2023-12-22T14:26:53;37.23;;;23.53;;
9248;SDS011;4660;41.768;26.198;2023-12-22T14:29:21;37.80;;;22.20;;
9248;SDS011;4660;41.768;26.198;2023-12-22T14:31:50;34.53;;;23.03;;
9248;SDS011;4660;41.768;26.198;2023-12-22T14:34:17;34.37;;;24.07;;
9248;SDS011;4660;41.768;26.198;2023-12-22T14:36:43;32.60;;;23.33;;
9248;SDS011;4660;41.768;26.198;2023-12-22T14:39:10;48.43;;;30.03;;
9248;SDS011;4660;41.768;26.198;2023-12-22T14:41:38;42.73;;;28.37;;
9248;SDS011;4660;41.768;26.198;2023-12-22T14:44:11;50.97;;;32.10;;